sensor_id;sensor_type;location;lat;lon;timestamp;P1;durP1;ratioP1;P2;durP2;ratioP2
9773;SDS011;4926;42.670;23.316;2023-05-10T00:01:47;8.18;;;7.32;;
9773;SDS011;4926;42.670;23.316;2023-05-10T00:04:13;10.77;;;7.20;;
9773;SDS011;4926;42.670;23.316;2023-05-10T00:06:42;9.10;;;7.95;;
9773;SDS011;4926;42.670;23.316;2023-05-10T00:09:11;9.05;;;8.15;;
9773;SDS011;4926;42.670;23.316;2023-05-10T00:11:37;9.00;;;7.95;;
9773;SDS011;4926;42.670;23.316;2023-05-10T00:14:07;8.68;;;7.80;;
9773;SDS011;4926;42.670;23.316;2023-05-10T00:16:34;9.50;;;7.90;;
9773;SDS011;4926;42.670;23.316;2023-05-10T00:19:01;8.68;;;7.78;;
9773;SDS011;4926;42.670;23.316;2023-05-10T00:21:27;11.13;;;8.35;;
9773;SDS011;4926;42.670;23.316;2023-05-10T00:23:54;8.82;;;7.93;;
9773;SDS011;4926;42.670;23.316;2023-05-10T00:26:21;8.82;;;7.93;;
9773;SDS011;4926;42.670;23.316;2023-05-10T00:28:47;8.30;;;7.50;;
9773;SDS011;4926;42.670;23.316;2023-05-10T00:31:18;9.65;;;8.63;;
9773;SDS011;4926;42.670;23.316;2023-05-10T00:33:45;8.75;;;7.85;;
9773;SDS011;4926;42.670;23.316;2023-05-10T00:36:12;9.98;;;8.75;;
9773;SDS011;4926;42.670;23.316;2023-05-10T00:38:38;10.13;;;8.80;;
9773;SDS011;4926;42.670;23.316;2023-05-10T00:41:07;9.23;;;8.20;;
9773;SDS011;4926;42.670;23.316;2023-05-10T00:43:34;9.45;;;8.55;;
9773;SDS011;4926;42.670;23.316;2023-05-10T00:46:00;10.15;;;8.50;;
9773;SDS011;4926;42.670;23.316;2023-05-10T00:48:29;10.25;;;9.25;;
9773;SDS011;4926;42.670;23.316;2023-05-10T00:50:56;11.63;;;9.55;;
9773;SDS011;4926;42.670;23.316;2023-05-10T00:53:25;10.85;;;9.27;;
9773;SDS011;4926;42.670;23.316;2023-05-10T00:55:53;10.15;;;8.55;;
9773;SDS011;4926;42.670;23.316;2023-05-10T00:58:26;12.75;;;10.77;;
9773;SDS011;4926;42.670;23.316;2023-05-10T01:00:56;11.20;;;10.07;;
9773;SDS011;4926;42.670;23.316;2023-05-10T01:03:24;9.43;;;8.43;;
9773;SDS011;4926;42.670;23.316;2023-05-10T01:05:55;9.95;;;8.88;;
9773;SDS011;4926;42.670;23.316;2023-05-10T01:08:23;11.25;;;9.82;;
9773;SDS011;4926;42.670;23.316;2023-05-10T01:10:52;13.57;;;10.02;;
9773;SDS011;4926;42.670;23.316;2023-05-10T01:13:29;12.13;;;10.93;;
9773;SDS011;4926;42.670;23.316;2023-05-10T01:15:59;12.00;;;10.00;;
9773;SDS011;4926;42.670;23.316;2023-05-10T01:18:28;11.23;;;10.02;;
9773;SDS011;4926;42.670;23.316;2023-05-10T01:21:00;13.00;;;10.60;;
9773;SDS011;4926;42.670;23.316;2023-05-10T01:23:45;11.88;;;10.68;;
9773;SDS011;4926;42.670;23.316;2023-05-10T01:32:33;12.60;;;10.85;;
9773;SDS011;4926;42.670;23.316;2023-05-10T01:35:10;8.50;;;7.68;;
9773;SDS011;4926;42.670;23.316;2023-05-10T01:37:46;8.25;;;7.45;;
9773;SDS011;4926;42.670;23.316;2023-05-10T01:40:17;9.23;;;8.32;;
9773;SDS011;4926;42.670;23.316;2023-05-10T01:42:57;10.43;;;8.07;;
9773;SDS011;4926;42.670;23.316;2023-05-10T01:45:32;7.38;;;6.68;;
9773;SDS011;4926;42.670;23.316;2023-05-10T01:48:05;8.32;;;7.53;;
9773;SDS011;4926;42.670;23.316;2023-05-10T01:50:34;8.50;;;7.63;;
9773;SDS011;4926;42.670;23.316;2023-05-10T01:53:02;6.50;;;5.85;;
9773;SDS011;4926;42.670;23.316;2023-05-10T01:55:34;5.25;;;4.78;;
9773;SDS011;4926;42.670;23.316;2023-05-10T01:58:06;6.07;;;5.47;;
9773;SDS011;4926;42.670;23.316;2023-05-10T02:00:39;4.90;;;4.45;;
9773;SDS011;4926;42.670;23.316;2023-05-10T02:03:13;6.18;;;5.25;;
9773;SDS011;4926;42.670;23.316;2023-05-10T02:05:42;6.95;;;6.03;;
9773;SDS011;4926;42.670;23.316;2023-05-10T02:08:12;6.32;;;5.40;;
9773;SDS011;4926;42.670;23.316;2023-05-10T02:10:40;6.28;;;4.93;;
9773;SDS011;4926;42.670;23.316;2023-05-10T02:13:08;5.43;;;4.93;;
9773;SDS011;4926;42.670;23.316;2023-05-10T02:15:37;6.35;;;5.75;;
9773;SDS011;4926;42.670;23.316;2023-05-10T02:18:05;4.70;;;4.30;;
9773;SDS011;4926;42.670;23.316;2023-05-10T02:20:34;4.90;;;4.50;;
9773;SDS011;4926;42.670;23.316;2023-05-10T02:23:03;4.95;;;4.47;;
9773;SDS011;4926;42.670;23.316;2023-05-10T02:25:33;5.90;;;4.57;;
9773;SDS011;4926;42.670;23.316;2023-05-10T02:28:02;5.40;;;4.90;;
9773;SDS011;4926;42.670;23.316;2023-05-10T02:30:31;5.60;;;5.03;;
9773;SDS011;4926;42.670;23.316;2023-05-10T02:32:59;5.55;;;4.03;;
9773;SDS011;4926;42.670;23.316;2023-05-10T02:35:30;5.20;;;3.60;;
9773;SDS011;4926;42.670;23.316;2023-05-10T02:37:59;4.88;;;4.13;;
9773;SDS011;4926;42.670;23.316;2023-05-10T02:40:27;5.65;;;4.97;;
9773;SDS011;4926;42.670;23.316;2023-05-10T02:42:56;3.80;;;3.45;;
9773;SDS011;4926;42.670;23.316;2023-05-10T02:45:31;5.05;;;4.07;;
9773;SDS011;4926;42.670;23.316;2023-05-10T02:48:03;6.50;;;4.80;;
9773;SDS011;4926;42.670;23.316;2023-05-10T02:50:30;4.55;;;4.10;;
9773;SDS011;4926;42.670;23.316;2023-05-10T02:53:01;6.00;;;5.38;;
9773;SDS011;4926;42.670;23.316;2023-05-10T02:55:37;4.70;;;3.92;;
9773;SDS011;4926;42.670;23.316;2023-05-10T02:58:06;7.20;;;5.00;;
9773;SDS011;4926;42.670;23.316;2023-05-10T03:00:33;7.97;;;5.43;;
9773;SDS011;4926;42.670;23.316;2023-05-10T03:03:02;6.20;;;5.60;;
9773;SDS011;4926;42.670;23.316;2023-05-10T03:05:35;6.20;;;5.05;;
9773;SDS011;4926;42.670;23.316;2023-05-10T03:08:03;5.65;;;4.18;;
9773;SDS011;4926;42.670;23.316;2023-05-10T03:10:31;9.98;;;4.70;;
9773;SDS011;4926;42.670;23.316;2023-05-10T03:13:07;6.18;;;5.50;;
9773;SDS011;4926;42.670;23.316;2023-05-10T03:15:47;4.82;;;4.28;;
9773;SDS011;4926;42.670;23.316;2023-05-10T03:18:23;5.88;;;5.00;;
9773;SDS011;4926;42.670;23.316;2023-05-10T03:20:55;6.15;;;5.28;;
9773;SDS011;4926;42.670;23.316;2023-05-10T03:23:29;5.85;;;5.00;;
9773;SDS011;4926;42.670;23.316;2023-05-10T03:26:01;7.63;;;5.05;;
9773;SDS011;4926;42.670;23.316;2023-05-10T03:28:31;5.93;;;4.93;;
9773;SDS011;4926;42.670;23.316;2023-05-10T03:31:00;6.30;;;4.57;;
9773;SDS011;4926;42.670;23.316;2023-05-10T03:33:28;6.57;;;4.70;;
9773;SDS011;4926;42.670;23.316;2023-05-10T03:35:55;8.30;;;5.18;;
9773;SDS011;4926;42.670;23.316;2023-05-10T03:38:22;5.90;;;5.20;;
9773;SDS011;4926;42.670;23.316;2023-05-10T03:40:50;6.80;;;4.95;;
9773;SDS011;4926;42.670;23.316;2023-05-10T03:43:19;5.38;;;4.60;;
9773;SDS011;4926;42.670;23.316;2023-05-10T03:45:48;6.68;;;4.80;;
9773;SDS011;4926;42.670;23.316;2023-05-10T03:48:14;5.53;;;4.47;;
9773;SDS011;4926;42.670;23.316;2023-05-10T03:50:41;5.78;;;5.00;;
9773;SDS011;4926;42.670;23.316;2023-05-10T03:53:08;6.15;;;5.03;;
9773;SDS011;4926;42.670;23.316;2023-05-10T03:55:38;6.18;;;4.50;;
9773;SDS011;4926;42.670;23.316;2023-05-10T03:58:06;6.40;;;4.47;;
9773;SDS011;4926;42.670;23.316;2023-05-10T04:00:33;6.00;;;5.20;;
9773;SDS011;4926;42.670;23.316;2023-05-10T04:03:00;8.70;;;5.30;;
9773;SDS011;4926;42.670;23.316;2023-05-10T04:05:26;6.35;;;5.10;;
9773;SDS011;4926;42.670;23.316;2023-05-10T04:07:55;5.53;;;4.43;;
9773;SDS011;4926;42.670;23.316;2023-05-10T04:10:22;4.65;;;4.18;;
9773;SDS011;4926;42.670;23.316;2023-05-10T04:12:52;5.90;;;4.38;;
9773;SDS011;4926;42.670;23.316;2023-05-10T04:15:26;5.80;;;5.30;;
9773;SDS011;4926;42.670;23.316;2023-05-10T04:17:52;5.93;;;4.78;;
9773;SDS011;4926;42.670;23.316;2023-05-10T04:20:19;7.60;;;4.80;;
9773;SDS011;4926;42.670;23.316;2023-05-10T04:22:46;7.05;;;5.13;;
9773;SDS011;4926;42.670;23.316;2023-05-10T04:25:16;5.30;;;4.70;;
9773;SDS011;4926;42.670;23.316;2023-05-10T04:27:43;6.50;;;4.70;;
9773;SDS011;4926;42.670;23.316;2023-05-10T04:30:11;6.80;;;5.07;;
9773;SDS011;4926;42.670;23.316;2023-05-10T04:32:40;7.40;;;5.60;;
9773;SDS011;4926;42.670;23.316;2023-05-10T04:35:09;5.75;;;5.15;;
9773;SDS011;4926;42.670;23.316;2023-05-10T04:37:36;6.40;;;5.65;;
9773;SDS011;4926;42.670;23.316;2023-05-10T04:40:04;8.25;;;5.88;;
9773;SDS011;4926;42.670;23.316;2023-05-10T04:42:35;6.13;;;5.53;;
9773;SDS011;4926;42.670;23.316;2023-05-10T04:45:02;8.45;;;5.68;;
9773;SDS011;4926;42.670;23.316;2023-05-10T04:47:29;7.55;;;5.07;;
9773;SDS011;4926;42.670;23.316;2023-05-10T04:49:59;6.00;;;5.03;;
9773;SDS011;4926;42.670;23.316;2023-05-10T04:52:28;6.47;;;5.78;;
9773;SDS011;4926;42.670;23.316;2023-05-10T04:54:54;7.68;;;6.00;;
9773;SDS011;4926;42.670;23.316;2023-05-10T04:57:21;6.80;;;5.95;;
9773;SDS011;4926;42.670;23.316;2023-05-10T04:59:48;7.63;;;6.28;;
9773;SDS011;4926;42.670;23.316;2023-05-10T05:02:19;7.30;;;5.75;;
9773;SDS011;4926;42.670;23.316;2023-05-10T05:04:56;6.53;;;5.68;;
9773;SDS011;4926;42.670;23.316;2023-05-10T05:07:24;7.43;;;6.25;;
9773;SDS011;4926;42.670;23.316;2023-05-10T05:09:51;6.47;;;5.65;;
9773;SDS011;4926;42.670;23.316;2023-05-10T05:12:21;12.23;;;8.57;;
9773;SDS011;4926;42.670;23.316;2023-05-10T05:14:48;40.83;;;19.45;;
9773;SDS011;4926;42.670;23.316;2023-05-10T05:17:17;18.30;;;9.75;;
9773;SDS011;4926;42.670;23.316;2023-05-10T05:19:48;10.80;;;6.72;;
9773;SDS011;4926;42.670;23.316;2023-05-10T05:22:16;9.02;;;6.53;;
9773;SDS011;4926;42.670;23.316;2023-05-10T05:24:52;9.13;;;7.63;;
9773;SDS011;4926;42.670;23.316;2023-05-10T05:27:21;8.43;;;6.85;;
9773;SDS011;4926;42.670;23.316;2023-05-10T05:29:52;7.20;;;6.50;;
9773;SDS011;4926;42.670;23.316;2023-05-10T05:32:19;7.97;;;7.18;;
9773;SDS011;4926;42.670;23.316;2023-05-10T05:34:46;7.65;;;6.85;;
9773;SDS011;4926;42.670;23.316;2023-05-10T05:37:13;12.15;;;7.65;;
9773;SDS011;4926;42.670;23.316;2023-05-10T05:39:44;7.68;;;6.68;;
9773;SDS011;4926;42.670;23.316;2023-05-10T05:42:13;7.60;;;6.85;;
9773;SDS011;4926;42.670;23.316;2023-05-10T05:44:41;9.93;;;7.72;;
9773;SDS011;4926;42.670;23.316;2023-05-10T05:47:10;8.40;;;7.47;;
9773;SDS011;4926;42.670;23.316;2023-05-10T05:49:37;7.93;;;7.13;;
9773;SDS011;4926;42.670;23.316;2023-05-10T05:52:06;11.40;;;8.05;;
9773;SDS011;4926;42.670;23.316;2023-05-10T05:54:33;9.65;;;8.60;;
9773;SDS011;4926;42.670;23.316;2023-05-10T05:57:02;12.70;;;8.27;;
9773;SDS011;4926;42.670;23.316;2023-05-10T05:59:29;11.35;;;8.55;;
9773;SDS011;4926;42.670;23.316;2023-05-10T06:01:58;13.10;;;8.95;;
9773;SDS011;4926;42.670;23.316;2023-05-10T06:04:25;11.15;;;8.90;;
9773;SDS011;4926;42.670;23.316;2023-05-10T06:06:52;10.80;;;9.18;;
9773;SDS011;4926;42.670;23.316;2023-05-10T06:09:19;10.15;;;9.05;;
9773;SDS011;4926;42.670;23.316;2023-05-10T06:11:45;11.07;;;9.00;;
9773;SDS011;4926;42.670;23.316;2023-05-10T06:14:13;10.60;;;8.07;;
9773;SDS011;4926;42.670;23.316;2023-05-10T06:16:40;11.63;;;8.73;;
9773;SDS011;4926;42.670;23.316;2023-05-10T06:19:07;11.48;;;9.35;;
9773;SDS011;4926;42.670;23.316;2023-05-10T06:21:33;12.95;;;10.95;;
9773;SDS011;4926;42.670;23.316;2023-05-10T06:24:00;13.02;;;9.43;;
9773;SDS011;4926;42.670;23.316;2023-05-10T06:26:27;18.27;;;12.30;;
9773;SDS011;4926;42.670;23.316;2023-05-10T06:28:54;13.25;;;10.00;;
9773;SDS011;4926;42.670;23.316;2023-05-10T06:31:22;12.32;;;9.30;;
9773;SDS011;4926;42.670;23.316;2023-05-10T06:33:49;15.73;;;9.85;;
9773;SDS011;4926;42.670;23.316;2023-05-10T06:36:15;11.50;;;9.57;;
9773;SDS011;4926;42.670;23.316;2023-05-10T06:38:47;11.68;;;9.07;;
9773;SDS011;4926;42.670;23.316;2023-05-10T06:41:13;13.23;;;8.63;;
9773;SDS011;4926;42.670;23.316;2023-05-10T06:43:40;11.07;;;9.02;;
9773;SDS011;4926;42.670;23.316;2023-05-10T06:46:10;11.63;;;9.80;;
9773;SDS011;4926;42.670;23.316;2023-05-10T06:48:41;10.98;;;8.25;;
9773;SDS011;4926;42.670;23.316;2023-05-10T06:51:14;9.50;;;8.38;;
9773;SDS011;4926;42.670;23.316;2023-05-10T06:53:43;10.23;;;8.20;;
9773;SDS011;4926;42.670;23.316;2023-05-10T06:56:17;11.60;;;9.23;;
9773;SDS011;4926;42.670;23.316;2023-05-10T06:58:49;12.75;;;8.88;;
9773;SDS011;4926;42.670;23.316;2023-05-10T07:01:18;10.38;;;8.60;;
9773;SDS011;4926;42.670;23.316;2023-05-10T07:03:48;10.68;;;9.20;;
9773;SDS011;4926;42.670;23.316;2023-05-10T07:06:17;9.38;;;8.02;;
9773;SDS011;4926;42.670;23.316;2023-05-10T07:08:43;9.45;;;8.25;;
9773;SDS011;4926;42.670;23.316;2023-05-10T07:11:10;8.82;;;7.93;;
9773;SDS011;4926;42.670;23.316;2023-05-10T07:13:37;11.25;;;8.30;;
9773;SDS011;4926;42.670;23.316;2023-05-10T07:16:06;9.73;;;6.38;;
9773;SDS011;4926;42.670;23.316;2023-05-10T07:18:33;9.93;;;8.55;;
9773;SDS011;4926;42.670;23.316;2023-05-10T07:21:01;10.50;;;7.53;;
9773;SDS011;4926;42.670;23.316;2023-05-10T07:23:33;8.10;;;6.95;;
9773;SDS011;4926;42.670;23.316;2023-05-10T07:26:00;13.15;;;8.35;;
9773;SDS011;4926;42.670;23.316;2023-05-10T07:28:27;8.93;;;7.72;;
9773;SDS011;4926;42.670;23.316;2023-05-10T07:30:54;7.65;;;6.18;;
9773;SDS011;4926;42.670;23.316;2023-05-10T07:33:20;10.23;;;7.63;;
9773;SDS011;4926;42.670;23.316;2023-05-10T07:35:47;9.38;;;7.88;;
9773;SDS011;4926;42.670;23.316;2023-05-10T07:38:18;11.40;;;8.73;;
9773;SDS011;4926;42.670;23.316;2023-05-10T07:40:51;9.80;;;8.55;;
9773;SDS011;4926;42.670;23.316;2023-05-10T07:43:18;10.02;;;7.65;;
9773;SDS011;4926;42.670;23.316;2023-05-10T07:45:59;10.45;;;7.75;;
9773;SDS011;4926;42.670;23.316;2023-05-10T07:48:26;11.45;;;8.65;;
9773;SDS011;4926;42.670;23.316;2023-05-10T07:50:53;12.45;;;9.82;;
9773;SDS011;4926;42.670;23.316;2023-05-10T07:53:25;15.77;;;10.20;;
9773;SDS011;4926;42.670;23.316;2023-05-10T07:55:52;10.80;;;9.60;;
9773;SDS011;4926;42.670;23.316;2023-05-10T07:58:23;12.75;;;9.40;;
9773;SDS011;4926;42.670;23.316;2023-05-10T08:00:50;13.90;;;9.35;;
9773;SDS011;4926;42.670;23.316;2023-05-10T08:03:17;11.40;;;9.10;;
9773;SDS011;4926;42.670;23.316;2023-05-10T08:05:45;11.77;;;8.90;;
9773;SDS011;4926;42.670;23.316;2023-05-10T08:08:12;11.85;;;9.27;;
9773;SDS011;4926;42.670;23.316;2023-05-10T08:10:49;13.63;;;9.93;;
9773;SDS011;4926;42.670;23.316;2023-05-10T08:13:16;10.73;;;9.63;;
9773;SDS011;4926;42.670;23.316;2023-05-10T08:15:42;11.85;;;9.10;;
9773;SDS011;4926;42.670;23.316;2023-05-10T08:18:09;9.70;;;8.70;;
9773;SDS011;4926;42.670;23.316;2023-05-10T08:20:36;11.50;;;10.20;;
9773;SDS011;4926;42.670;23.316;2023-05-10T08:23:05;8.65;;;7.65;;
9773;SDS011;4926;42.670;23.316;2023-05-10T08:25:34;10.73;;;9.63;;
9773;SDS011;4926;42.670;23.316;2023-05-10T08:28:04;11.23;;;9.23;;
9773;SDS011;4926;42.670;23.316;2023-05-10T08:30:31;12.88;;;9.10;;
9773;SDS011;4926;42.670;23.316;2023-05-10T08:33:00;10.00;;;8.52;;
9773;SDS011;4926;42.670;23.316;2023-05-10T08:35:29;11.68;;;9.10;;
9773;SDS011;4926;42.670;23.316;2023-05-10T08:37:56;11.18;;;8.82;;
9773;SDS011;4926;42.670;23.316;2023-05-10T08:40:23;10.88;;;8.90;;
9773;SDS011;4926;42.670;23.316;2023-05-10T08:42:54;10.68;;;9.55;;
9773;SDS011;4926;42.670;23.316;2023-05-10T08:45:26;10.30;;;9.20;;
9773;SDS011;4926;42.670;23.316;2023-05-10T08:47:56;11.20;;;8.80;;
9773;SDS011;4926;42.670;23.316;2023-05-10T08:50:25;10.13;;;8.73;;
9773;SDS011;4926;42.670;23.316;2023-05-10T08:52:52;11.27;;;9.63;;
9773;SDS011;4926;42.670;23.316;2023-05-10T08:55:21;10.98;;;9.20;;
9773;SDS011;4926;42.670;23.316;2023-05-10T08:57:51;9.40;;;8.38;;
9773;SDS011;4926;42.670;23.316;2023-05-10T09:00:18;11.07;;;9.85;;
9773;SDS011;4926;42.670;23.316;2023-05-10T09:02:51;12.75;;;9.82;;
9773;SDS011;4926;42.670;23.316;2023-05-10T09:05:18;9.65;;;8.45;;
9773;SDS011;4926;42.670;23.316;2023-05-10T09:07:45;10.25;;;9.25;;
9773;SDS011;4926;42.670;23.316;2023-05-10T09:10:12;13.00;;;9.95;;
9773;SDS011;4926;42.670;23.316;2023-05-10T09:12:39;9.88;;;8.80;;
9773;SDS011;4926;42.670;23.316;2023-05-10T09:15:15;12.95;;;10.55;;
9773;SDS011;4926;42.670;23.316;2023-05-10T09:17:44;11.82;;;10.55;;
9773;SDS011;4926;42.670;23.316;2023-05-10T09:20:13;9.93;;;8.93;;
9773;SDS011;4926;42.670;23.316;2023-05-10T09:22:43;11.25;;;9.63;;
9773;SDS011;4926;42.670;23.316;2023-05-10T09:25:11;10.98;;;9.85;;
9773;SDS011;4926;42.670;23.316;2023-05-10T09:27:44;11.63;;;8.75;;
9773;SDS011;4926;42.670;23.316;2023-05-10T09:30:14;10.65;;;9.55;;
9773;SDS011;4926;42.670;23.316;2023-05-10T09:32:45;10.15;;;9.05;;
9773;SDS011;4926;42.670;23.316;2023-05-10T09:35:16;11.40;;;9.73;;
9773;SDS011;4926;42.670;23.316;2023-05-10T09:37:45;10.82;;;9.25;;
9773;SDS011;4926;42.670;23.316;2023-05-10T09:40:14;11.27;;;10.07;;
9773;SDS011;4926;42.670;23.316;2023-05-10T09:42:50;11.10;;;9.90;;
9773;SDS011;4926;42.670;23.316;2023-05-10T09:45:17;9.75;;;8.73;;
9773;SDS011;4926;42.670;23.316;2023-05-10T09:47:45;9.77;;;8.77;;
9773;SDS011;4926;42.670;23.316;2023-05-10T09:50:12;10.82;;;9.73;;
9773;SDS011;4926;42.670;23.316;2023-05-10T09:52:50;11.88;;;10.68;;
9773;SDS011;4926;42.670;23.316;2023-05-10T09:55:21;11.57;;;9.98;;
9773;SDS011;4926;42.670;23.316;2023-05-10T09:57:49;11.82;;;9.63;;
9773;SDS011;4926;42.670;23.316;2023-05-10T10:00:27;11.45;;;10.27;;
9773;SDS011;4926;42.670;23.316;2023-05-10T10:03:00;10.57;;;9.57;;
9773;SDS011;4926;42.670;23.316;2023-05-10T10:05:31;10.25;;;9.25;;
9773;SDS011;4926;42.670;23.316;2023-05-10T10:08:03;9.65;;;8.65;;
9773;SDS011;4926;42.670;23.316;2023-05-10T10:10:31;11.57;;;9.52;;
9773;SDS011;4926;42.670;23.316;2023-05-10T10:12:59;13.20;;;9.57;;
9773;SDS011;4926;42.670;23.316;2023-05-10T10:15:26;11.57;;;9.75;;
9773;SDS011;4926;42.670;23.316;2023-05-10T10:17:53;10.07;;;9.07;;
9773;SDS011;4926;42.670;23.316;2023-05-10T10:20:21;11.02;;;8.88;;
9773;SDS011;4926;42.670;23.316;2023-05-10T10:22:50;11.00;;;8.82;;
9773;SDS011;4926;42.670;23.316;2023-05-10T10:25:19;9.32;;;8.30;;
9773;SDS011;4926;42.670;23.316;2023-05-10T10:27:52;10.75;;;8.77;;
9773;SDS011;4926;42.670;23.316;2023-05-10T10:30:34;11.50;;;8.43;;
9773;SDS011;4926;42.670;23.316;2023-05-10T10:33:22;9.82;;;7.57;;
9773;SDS011;4926;42.670;23.316;2023-05-10T10:36:13;9.77;;;8.07;;
9773;SDS011;4926;42.670;23.316;2023-05-10T10:39:00;7.88;;;7.18;;
9773;SDS011;4926;42.670;23.316;2023-05-10T10:41:32;12.15;;;8.23;;
9773;SDS011;4926;42.670;23.316;2023-05-10T10:47:22;9.82;;;7.65;;
9773;SDS011;4926;42.670;23.316;2023-05-10T10:50:04;8.23;;;6.85;;
9773;SDS011;4926;42.670;23.316;2023-05-10T10:52:33;10.27;;;7.50;;
9773;SDS011;4926;42.670;23.316;2023-05-10T10:55:02;7.55;;;6.75;;
9773;SDS011;4926;42.670;23.316;2023-05-10T10:57:44;8.68;;;7.47;;
9773;SDS011;4926;42.670;23.316;2023-05-10T11:00:28;9.50;;;7.72;;
9773;SDS011;4926;42.670;23.316;2023-05-10T11:02:56;7.35;;;6.65;;
9773;SDS011;4926;42.670;23.316;2023-05-10T11:08:13;11.18;;;7.68;;
9773;SDS011;4926;42.670;23.316;2023-05-10T11:10:52;10.50;;;7.57;;
9773;SDS011;4926;42.670;23.316;2023-05-10T11:13:29;9.18;;;7.30;;
9773;SDS011;4926;42.670;23.316;2023-05-10T11:15:59;8.32;;;7.00;;
9773;SDS011;4926;42.670;23.316;2023-05-10T11:18:36;8.35;;;7.10;;
9773;SDS011;4926;42.670;23.316;2023-05-10T11:21:07;9.27;;;6.90;;
9773;SDS011;4926;42.670;23.316;2023-05-10T11:23:47;9.18;;;6.78;;
9773;SDS011;4926;42.670;23.316;2023-05-10T11:26:15;12.15;;;7.63;;
9773;SDS011;4926;42.670;23.316;2023-05-10T11:28:44;8.98;;;6.03;;
9773;SDS011;4926;42.670;23.316;2023-05-10T11:31:13;6.78;;;6.15;;
9773;SDS011;4926;42.670;23.316;2023-05-10T11:33:44;7.32;;;6.60;;
9773;SDS011;4926;42.670;23.316;2023-05-10T11:36:11;8.75;;;7.07;;
9773;SDS011;4926;42.670;23.316;2023-05-10T11:38:38;13.27;;;8.20;;
9773;SDS011;4926;42.670;23.316;2023-05-10T11:41:05;8.82;;;6.90;;
9773;SDS011;4926;42.670;23.316;2023-05-10T11:43:34;9.38;;;6.78;;
9773;SDS011;4926;42.670;23.316;2023-05-10T11:46:04;10.75;;;6.65;;
9773;SDS011;4926;42.670;23.316;2023-05-10T11:48:31;10.73;;;6.20;;
9773;SDS011;4926;42.670;23.316;2023-05-10T11:50:58;6.82;;;6.13;;
9773;SDS011;4926;42.670;23.316;2023-05-10T11:53:27;7.57;;;5.97;;
9773;SDS011;4926;42.670;23.316;2023-05-10T11:56:02;8.85;;;7.45;;
9773;SDS011;4926;42.670;23.316;2023-05-10T11:58:29;8.18;;;6.40;;
9773;SDS011;4926;42.670;23.316;2023-05-10T12:01:06;10.15;;;7.38;;
9773;SDS011;4926;42.670;23.316;2023-05-10T12:03:34;8.88;;;6.80;;
9773;SDS011;4926;42.670;23.316;2023-05-10T12:06:04;10.45;;;6.10;;
9773;SDS011;4926;42.670;23.316;2023-05-10T12:08:35;13.15;;;8.13;;
9773;SDS011;4926;42.670;23.316;2023-05-10T12:11:06;9.93;;;7.07;;
9773;SDS011;4926;42.670;23.316;2023-05-10T12:13:37;9.60;;;7.20;;
9773;SDS011;4926;42.670;23.316;2023-05-10T12:16:14;8.50;;;6.57;;
9773;SDS011;4926;42.670;23.316;2023-05-10T12:18:42;8.90;;;8.00;;
9773;SDS011;4926;42.670;23.316;2023-05-10T12:21:14;10.68;;;7.78;;
9773;SDS011;4926;42.670;23.316;2023-05-10T12:23:41;9.38;;;8.38;;
9773;SDS011;4926;42.670;23.316;2023-05-10T12:26:08;12.10;;;8.95;;
9773;SDS011;4926;42.670;23.316;2023-05-10T12:28:36;9.63;;;8.48;;
9773;SDS011;4926;42.670;23.316;2023-05-10T12:31:08;8.40;;;7.47;;
9773;SDS011;4926;42.670;23.316;2023-05-10T12:33:38;10.25;;;8.90;;
9773;SDS011;4926;42.670;23.316;2023-05-10T12:36:09;12.63;;;8.98;;
9773;SDS011;4926;42.670;23.316;2023-05-10T12:38:39;11.98;;;8.63;;
9773;SDS011;4926;42.670;23.316;2023-05-10T12:41:08;12.48;;;9.20;;
9773;SDS011;4926;42.670;23.316;2023-05-10T12:43:36;11.13;;;8.70;;
9773;SDS011;4926;42.670;23.316;2023-05-10T12:46:04;11.32;;;8.30;;
9773;SDS011;4926;42.670;23.316;2023-05-10T12:48:32;10.77;;;8.90;;
9773;SDS011;4926;42.670;23.316;2023-05-10T12:51:00;11.85;;;8.85;;
9773;SDS011;4926;42.670;23.316;2023-05-10T12:53:33;9.73;;;7.80;;
9773;SDS011;4926;42.670;23.316;2023-05-10T12:56:02;14.10;;;10.02;;
9773;SDS011;4926;42.670;23.316;2023-05-10T12:58:32;11.02;;;8.65;;
9773;SDS011;4926;42.670;23.316;2023-05-10T13:00:59;10.15;;;8.68;;
9773;SDS011;4926;42.670;23.316;2023-05-10T13:03:26;13.70;;;8.80;;
9773;SDS011;4926;42.670;23.316;2023-05-10T13:05:54;13.95;;;9.82;;
9773;SDS011;4926;42.670;23.316;2023-05-10T13:08:23;10.23;;;9.13;;
9773;SDS011;4926;42.670;23.316;2023-05-10T13:10:50;11.10;;;8.32;;
9773;SDS011;4926;42.670;23.316;2023-05-10T13:13:21;14.40;;;9.25;;
9773;SDS011;4926;42.670;23.316;2023-05-10T13:15:48;10.07;;;9.07;;
9773;SDS011;4926;42.670;23.316;2023-05-10T13:18:20;12.68;;;9.48;;
9773;SDS011;4926;42.670;23.316;2023-05-10T13:20:52;9.90;;;8.63;;
9773;SDS011;4926;42.670;23.316;2023-05-10T13:23:20;12.05;;;8.82;;
9773;SDS011;4926;42.670;23.316;2023-05-10T13:25:50;11.55;;;9.07;;
9773;SDS011;4926;42.670;23.316;2023-05-10T13:28:16;8.55;;;7.75;;
9773;SDS011;4926;42.670;23.316;2023-05-10T13:30:43;9.85;;;8.82;;
9773;SDS011;4926;42.670;23.316;2023-05-10T13:33:10;9.48;;;8.50;;
9773;SDS011;4926;42.670;23.316;2023-05-10T13:35:43;9.57;;;7.93;;
9773;SDS011;4926;42.670;23.316;2023-05-10T13:38:10;9.27;;;7.70;;
9773;SDS011;4926;42.670;23.316;2023-05-10T13:40:36;11.88;;;8.25;;
9773;SDS011;4926;42.670;23.316;2023-05-10T13:43:04;8.88;;;7.95;;
9773;SDS011;4926;42.670;23.316;2023-05-10T13:45:31;9.30;;;8.15;;
9773;SDS011;4926;42.670;23.316;2023-05-10T13:47:58;10.88;;;8.90;;
9773;SDS011;4926;42.670;23.316;2023-05-10T13:50:25;11.02;;;8.98;;
9773;SDS011;4926;42.670;23.316;2023-05-10T13:52:52;11.70;;;8.52;;
9773;SDS011;4926;42.670;23.316;2023-05-10T13:58:42;9.93;;;7.97;;
9773;SDS011;4926;42.670;23.316;2023-05-10T14:01:09;16.90;;;9.52;;
9773;SDS011;4926;42.670;23.316;2023-05-10T14:03:37;8.50;;;7.45;;
9773;SDS011;4926;42.670;23.316;2023-05-10T14:06:04;12.55;;;9.18;;
9773;SDS011;4926;42.670;23.316;2023-05-10T14:08:32;14.00;;;9.27;;
9773;SDS011;4926;42.670;23.316;2023-05-10T14:10:59;11.25;;;8.52;;
9773;SDS011;4926;42.670;23.316;2023-05-10T14:13:26;10.20;;;8.60;;
9773;SDS011;4926;42.670;23.316;2023-05-10T14:15:54;11.23;;;9.15;;
9773;SDS011;4926;42.670;23.316;2023-05-10T14:18:21;11.40;;;8.50;;
9773;SDS011;4926;42.670;23.316;2023-05-10T14:20:47;14.27;;;9.27;;
9773;SDS011;4926;42.670;23.316;2023-05-10T14:23:15;9.25;;;8.30;;
9773;SDS011;4926;42.670;23.316;2023-05-10T14:25:41;11.73;;;8.60;;
9773;SDS011;4926;42.670;23.316;2023-05-10T14:28:10;9.77;;;8.65;;
9773;SDS011;4926;42.670;23.316;2023-05-10T14:30:39;11.20;;;9.32;;
9773;SDS011;4926;42.670;23.316;2023-05-10T14:33:07;13.23;;;8.57;;
9773;SDS011;4926;42.670;23.316;2023-05-10T14:35:34;10.20;;;8.57;;
9773;SDS011;4926;42.670;23.316;2023-05-10T14:38:06;9.68;;;8.07;;
9773;SDS011;4926;42.670;23.316;2023-05-10T14:40:33;10.07;;;8.40;;
9773;SDS011;4926;42.670;23.316;2023-05-10T14:43:00;9.05;;;8.07;;
9773;SDS011;4926;42.670;23.316;2023-05-10T14:45:26;10.43;;;8.15;;
9773;SDS011;4926;42.670;23.316;2023-05-10T14:47:53;9.95;;;8.65;;
9773;SDS011;4926;42.670;23.316;2023-05-10T14:50:21;11.57;;;8.65;;
9773;SDS011;4926;42.670;23.316;2023-05-10T14:56:01;10.02;;;7.82;;
9773;SDS011;4926;42.670;23.316;2023-05-10T14:58:28;11.38;;;9.30;;
9773;SDS011;4926;42.670;23.316;2023-05-10T15:00:55;13.30;;;9.43;;
9773;SDS011;4926;42.670;23.316;2023-05-10T15:03:25;10.75;;;8.60;;
9773;SDS011;4926;42.670;23.316;2023-05-10T15:05:53;9.93;;;8.48;;
9773;SDS011;4926;42.670;23.316;2023-05-10T15:08:22;12.00;;;8.05;;
9773;SDS011;4926;42.670;23.316;2023-05-10T15:10:51;10.68;;;8.30;;
9773;SDS011;4926;42.670;23.316;2023-05-10T15:13:20;12.40;;;8.50;;
9773;SDS011;4926;42.670;23.316;2023-05-10T15:15:47;10.00;;;8.02;;
9773;SDS011;4926;42.670;23.316;2023-05-10T15:18:13;9.82;;;8.27;;
9773;SDS011;4926;42.670;23.316;2023-05-10T15:20:40;11.00;;;8.07;;
9773;SDS011;4926;42.670;23.316;2023-05-10T15:23:08;9.88;;;8.63;;
9773;SDS011;4926;42.670;23.316;2023-05-10T15:25:35;9.52;;;8.52;;